Time;durP1;ratioP1;P1;durP2;ratioP2;P2;SDS_P1;SDS_P2;PMS_P1;PMS_P2;Temp;Humidity;BMP_temperature;BMP_pressure;BME280_temperature;BME280_humidity;BME280_pressure;Samples;Min_cycle;Max_cycle;Signal;HPM_P1;HPM_P2
2022/01/24 00:01:05;;;;;;;17.50;9.57;;;;;;;2.09;69.21;102233.63;5012845;28;20475;-89
2022/01/24 00:03:32;;;;;;;15.65;8.98;;;;;;;2.17;69.33;102238.00;5010937;28;20046;-89
2022/01/24 00:05:57;;;;;;;18.65;9.80;;;;;;;2.16;69.05;102240.38;5012379;28;20515;-89
2022/01/24 00:08:31;;;;;;;14.65;9.00;;;;;;;2.25;69.30;102256.88;4995938;28;20036;-90
2022/01/24 00:11:17;;;;;;;16.67;9.00;;;;;;;1.99;69.49;102202.44;4996456;28;20056;-90
2022/01/24 00:14:49;;;;;;;17.80;8.50;;;;;;;1.87;69.20;102194.28;4996518;28;20518;-90
2022/01/24 00:17:00;;;;;;;16.67;9.32;;;;;;;1.86;69.28;102200.16;5007594;28;20032;-90
2022/01/24 00:37:09;;;;;;;13.93;8.00;;;;;;;2.38;69.37;102298.75;5103017;27;20391;-91
2022/01/24 00:40:12;;;;;;;14.43;8.32;;;;;;;2.44;69.07;102294.25;5068761;28;20075;-93
2022/01/24 00:43:46;;;;;;;16.02;8.77;;;;;;;2.37;69.00;102291.78;5051743;28;20044;-92
2022/01/24 00:47:46;;;;;;;15.32;8.48;;;;;;;2.47;69.51;102296.25;5069278;28;20032;-93
2022/01/24 00:53:10;;;;;;;15.25;8.70;;;;;;;2.35;69.02;102274.28;5068676;28;20044;-93
2022/01/24 00:55:28;;;;;;;15.45;8.98;;;;;;;2.29;69.22;102292.56;5068940;28;20472;-89
2022/01/24 00:57:59;;;;;;;15.23;8.32;;;;;;;2.27;68.80;102267.38;5068288;28;20048;-91
2022/01/24 01:00:28;;;;;;;15.55;8.40;;;;;;;2.48;68.68;102313.59;5047934;28;20041;-90
2022/01/24 01:03:01;;;;;;;13.13;8.38;;;;;;;2.33;69.20;102302.47;5042136;28;20441;-92
2022/01/24 01:18:08;;;;;;;13.05;8.00;;;;;;;2.50;68.82;102282.78;5048734;28;20033;-90
2022/01/24 01:19:54;;;;;;;14.93;8.23;;;;;;;2.21;69.12;102265.94;5066415;28;20473;-92
2022/01/24 01:22:26;;;;;;;14.10;8.10;;;;;;;1.99;69.31;102254.91;5031627;28;20033;-92
2022/01/24 01:24:54;;;;;;;13.45;8.35;;;;;;;2.12;69.52;102295.84;5031349;28;20067;-90
2022/01/24 01:27:31;;;;;;;12.63;8.38;;;;;;;1.63;69.41;102202.75;5032061;28;20563;-92
2022/01/24 01:30:35;;;;;;;13.70;8.25;;;;;;;2.36;69.14;102313.13;5034097;28;20026;-92
2022/01/24 01:34:00;;;;;;;15.30;8.73;;;;;;;2.38;69.09;102316.78;5067623;28;20409;-93
2022/01/24 01:39:54;;;;;;;13.25;7.82;;;;;;;2.29;68.80;102282.25;5034717;28;20463;-92
2022/01/24 01:56:23;;;;;;;14.18;8.07;;;;;;;2.50;69.10;102343.03;5029451;28;20113;-90
2022/01/24 01:59:26;;;;;;;;;;;;;;;2.44;68.75;102345.84;5014773;28;20096;-93
2022/01/24 02:02:32;;;;;;;13.73;8.02;;;;;;;2.47;69.13;102342.66;5015092;28;20399;-92
2022/01/24 02:05:01;;;;;;;14.63;8.45;;;;;;;2.16;69.30;102316.06;5015078;28;20057;-93
2022/01/24 02:07:51;;;;;;;14.27;8.45;;;;;;;2.23;69.86;102343.44;5010487;28;20037;-90
2022/01/24 02:10:19;;;;;;;13.25;7.95;;;;;;;2.21;69.68;102334.59;5033802;28;20022;-90
2022/01/24 02:12:47;;;;;;;14.63;8.57;;;;;;;2.24;69.20;102343.63;5033845;28;20567;-90
2022/01/24 02:23:42;;;;;;;17.15;8.40;;;;;;;2.24;69.57;102338.47;5015266;28;20063;-91
2022/01/24 02:29:46;;;;;;;15.43;8.52;;;;;;;2.08;69.07;102310.78;5014872;28;20096;-91
2022/01/24 02:32:36;;;;;;;15.00;8.48;;;;;;;2.34;69.24;102348.13;4999881;28;20117;-91
2022/01/24 02:35:02;;;;;;;15.70;8.82;;;;;;;2.19;68.87;102330.94;5013993;28;20054;-90
2022/01/24 02:49:32;;;;;;;14.00;8.57;;;;;;;1.77;69.21;102286.72;5052632;28;20106;-93
2022/01/24 02:52:33;;;;;;;15.98;8.75;;;;;;;2.23;69.47;102371.78;5036749;28;20116;-91
2022/01/24 02:55:07;;;;;;;14.55;8.13;;;;;;;2.20;68.93;102346.59;5047896;28;20115;-93
2022/01/24 02:57:51;;;;;;;14.45;8.73;;;;;;;2.13;69.06;102349.19;5032835;28;20112;-90
2022/01/24 03:00:21;;;;;;;15.32;9.10;;;;;;;2.28;69.00;102398.06;5016362;28;20041;-93
2022/01/24 03:02:46;;;;;;;14.70;8.98;;;;;;;1.87;69.01;102328.22;5016715;28;20492;-93
2022/01/24 03:05:47;;;;;;;15.07;8.77;;;;;;;2.18;68.92;102394.47;5033089;28;20029;-93
2022/01/24 03:08:21;;;;;;;15.07;8.82;;;;;;;1.88;69.36;102360.03;5033740;28;20044;-93
2022/01/24 03:10:51;;;;;;;14.07;8.18;;;;;;;1.82;69.35;102324.19;5065015;28;20040;-94
2022/01/24 03:13:53;;;;;;;16.45;8.80;;;;;;;2.11;70.02;102399.66;5036555;28;20043;-90
2022/01/24 03:20:15;;;;;;;15.88;8.63;;;;;;;2.44;67.96;102420.59;5035779;28;20128;-90
2022/01/24 03:22:44;;;;;;;14.55;8.63;;;;;;;2.12;69.25;102379.97;5015716;28;20033;-91
2022/01/24 03:25:24;;;;;;;18.85;9.32;;;;;;;1.94;69.40;102376.19;5015937;28;20516;-92
2022/01/24 03:28:15;;;;;;;17.02;9.07;;;;;;;2.16;68.92;102413.06;5028189;28;20029;-91
2022/01/24 03:30:56;;;;;;;14.82;8.80;;;;;;;2.00;69.24;102376.91;5035707;28;20119;-89
2022/01/24 03:33:43;;;;;;;16.95;9.15;;;;;;;2.09;68.98;102432.06;5035624;28;20033;-92
2022/01/24 03:36:24;;;;;;;17.98;10.30;;;;;;;1.98;70.10;102435.97;5035655;28;20052;-94
2022/01/24 03:38:56;;;;;;;16.55;8.60;;;;;;;1.85;69.87;102403.50;5036129;28;20047;-95
2022/01/24 03:41:44;;;;;;;16.77;8.93;;;;;;;2.34;68.35;102456.41;5020218;28;20459;-93
2022/01/24 03:44:24;;;;;;;15.77;8.95;;;;;;;2.13;69.15;102451.38;5034376;28;20047;-94
2022/01/24 03:47:41;;;;;;;16.50;8.98;;;;;;;2.12;69.73;102449.56;5024548;28;20032;-96
2022/01/24 03:50:08;;;;;;;18.15;9.52;;;;;;;2.13;69.34;102447.13;5037762;28;20029;-94
2022/01/24 03:56:17;;;;;;;17.45;9.20;;;;;;;2.06;69.33;102478.09;5045495;28;20043;-96
2022/01/24 03:58:56;;;;;;;15.20;8.85;;;;;;;2.08;68.81;102483.44;5042423;28;20037;-95
2022/01/24 04:01:50;;;;;;;15.18;9.07;;;;;;;2.08;69.12;102486.94;5064307;28;20036;-96
2022/01/24 04:04:30;;;;;;;16.77;9.48;;;;;;;2.10;69.18;102497.41;5061847;28;20087;-96
2022/01/24 04:06:59;;;;;;;18.70;10.05;;;;;;;2.08;69.50;102494.66;5034898;28;20026;-96
2022/01/24 04:10:06;;;;;;;16.02;8.77;;;;;;;2.10;69.54;102502.56;5039299;28;20025;-96
2022/01/24 04:12:40;;;;;;;16.23;9.15;;;;;;;1.69;69.02;102419.72;5054802;28;20029;-91
2022/01/24 04:15:13;;;;;;;18.70;10.00;;;;;;;2.07;68.83;102485.06;5015594;28;20033;-91
2022/01/24 04:17:47;;;;;;;17.65;9.30;;;;;;;2.04;68.94;102466.69;5031909;28;20036;-93
2022/01/24 04:23:40;;;;;;;18.63;9.55;;;;;;;2.10;69.71;102515.47;5031596;28;20155;-91
2022/01/24 04:26:35;;;;;;;18.95;9.50;;;;;;;2.17;69.00;102520.56;5032119;28;20084;-92
2022/01/24 04:29:02;;;;;;;16.33;9.00;;;;;;;2.31;68.64;102512.78;5040470;28;20083;-90
2022/01/24 04:31:35;;;;;;;17.15;9.32;;;;;;;2.13;68.75;102483.22;5032846;28;20032;-90
2022/01/24 04:34:04;;;;;;;16.00;9.48;;;;;;;2.16;69.12;102517.09;5041254;28;20120;-89
2022/01/24 04:36:50;;;;;;;15.55;9.05;;;;;;;2.13;69.31;102508.97;5057339;28;20056;-90
2022/01/24 04:39:35;;;;;;;16.38;9.25;;;;;;;2.11;69.32;102515.63;5036002;28;20106;-92
2022/01/24 04:42:26;;;;;;;16.27;9.63;;;;;;;2.01;69.29;102507.56;5033985;28;20030;-90
2022/01/24 04:54:03;;;;;;;18.52;9.82;;;;;;;2.25;69.23;102527.53;5035284;28;20104;-93
2022/01/24 04:59:59;;;;;;;16.17;9.18;;;;;;;1.82;69.38;102478.72;5052569;28;20047;-94
2022/01/24 05:02:25;;;;;;;17.20;9.90;;;;;;;2.12;69.12;102527.78;5030299;28;20037;-93
2022/01/24 05:05:14;;;;;;;18.08;9.63;;;;;;;1.85;69.50;102506.53;5030579;28;20036;-92
2022/01/24 05:07:50;;;;;;;17.85;9.30;;;;;;;1.61;69.50;102454.91;5049611;28;20006;-94
2022/01/24 05:10:32;;;;;;;18.05;10.23;;;;;;;2.00;68.81;102496.34;5019753;28;20045;-95
2022/01/24 05:24:14;;;;;;;18.17;9.95;;;;;;;2.14;68.57;102533.09;5050827;28;20419;-93
2022/01/24 05:26:45;;;;;;;18.42;9.70;;;;;;;2.06;69.04;102526.16;5024303;28;20198;-95
2022/01/24 05:29:24;;;;;;;17.00;9.50;;;;;;;1.85;69.38;102485.94;5034266;28;20523;-94
2022/01/24 05:32:00;;;;;;;18.08;10.20;;;;;;;2.13;69.10;102534.75;5035046;28;20029;-93
2022/01/24 05:38:02;;;;;;;18.92;10.00;;;;;;;1.96;68.54;102490.66;5055816;28;20071;-93
2022/01/24 05:40:43;;;;;;;18.52;10.23;;;;;;;2.03;69.06;102521.53;5032446;28;20040;-92
2022/01/24 05:43:09;;;;;;;20.25;10.35;;;;;;;1.82;68.74;102479.69;5030613;28;20025;-90
2022/01/24 05:45:36;;;;;;;20.45;10.35;;;;;;;2.10;68.75;102526.69;5033414;28;20029;-82
2022/01/24 05:48:02;;;;;;;17.40;10.52;;;;;;;2.00;68.55;102511.78;5033401;28;20041;-90
2022/01/24 05:50:30;;;;;;;19.80;10.13;;;;;;;2.03;69.34;102526.69;5032368;28;20092;-90
2022/01/24 05:52:59;;;;;;;20.33;10.98;;;;;;;1.84;68.92;102497.88;5039782;28;20091;-91
2022/01/24 05:55:26;;;;;;;20.35;10.48;;;;;;;1.85;68.56;102507.44;5034084;28;20048;-89
2022/01/24 05:57:58;;;;;;;18.90;10.10;;;;;;;1.86;69.38;102517.00;5033523;28;20045;-90
2022/01/24 06:00:26;;;;;;;20.27;11.30;;;;;;;1.99;68.14;102516.75;5063370;28;20044;-91
2022/01/24 06:02:51;;;;;;;20.92;11.30;;;;;;;2.01;68.87;102536.84;5051815;28;20481;-91
2022/01/24 06:05:20;;;;;;;19.35;10.80;;;;;;;1.96;69.11;102530.22;5020436;28;20029;-94
2022/01/24 06:07:47;;;;;;;18.88;10.50;;;;;;;2.05;68.74;102532.94;5049840;28;20064;-91
2022/01/24 06:10:14;;;;;;;19.02;10.10;;;;;;;1.91;68.83;102509.81;5038313;28;20033;-93
2022/01/24 06:12:42;;;;;;;20.35;10.88;;;;;;;2.12;68.61;102548.41;5024787;28;20029;-93
2022/01/24 06:15:27;;;;;;;22.20;10.95;;;;;;;2.07;68.66;102546.00;5036446;28;20034;-93
2022/01/24 06:17:54;;;;;;;20.98;11.30;;;;;;;1.89;69.01;102549.94;5071357;28;20095;-91
2022/01/24 06:20:24;;;;;;;18.55;10.82;;;;;;;1.54;69.85;102510.66;5059279;28;20694;-91
2022/01/24 06:22:50;;;;;;;19.33;10.88;;;;;;;2.09;68.53;102549.69;5045827;28;20121;-94
2022/01/24 06:25:23;;;;;;;23.05;11.55;;;;;;;1.99;69.14;102553.78;5033674;28;20221;-93
2022/01/24 06:28:06;;;;;;;22.02;11.55;;;;;;;1.91;69.39;102544.22;5033930;28;20032;-95
2022/01/24 06:30:37;;;;;;;24.75;11.55;;;;;;;1.65;69.11;102520.53;5034533;28;20083;-93
2022/01/24 06:33:02;;;;;;;20.42;11.05;;;;;;;1.99;69.33;102552.84;5047626;28;20025;-93
2022/01/24 06:35:29;;;;;;;21.85;11.43;;;;;;;1.93;68.58;102517.00;5040979;28;20033;-95
2022/01/24 06:37:55;;;;;;;21.13;11.43;;;;;;;2.08;68.85;102565.91;5072599;28;20035;-95
2022/01/24 06:40:22;;;;;;;22.27;11.75;;;;;;;1.96;68.49;102549.91;5061248;28;20029;-96
2022/01/24 06:42:47;;;;;;;21.90;11.23;;;;;;;1.82;68.95;102553.44;5040940;28;20032;-95
2022/01/24 06:45:18;;;;;;;21.30;11.73;;;;;;;1.77;68.98;102547.75;5052150;28;20040;-95
2022/01/24 06:48:03;;;;;;;20.67;11.60;;;;;;;2.07;68.69;102576.94;5050813;28;20042;-96
2022/01/24 06:50:39;;;;;;;22.85;11.88;;;;;;;1.78;68.44;102547.03;5063638;28;20100;-94
2022/01/24 06:53:05;;;;;;;20.20;11.45;;;;;;;1.43;69.13;102520.59;5081698;28;20008;-95
2022/01/24 06:55:47;;;;;;;21.63;11.68;;;;;;;0.92;69.41;102435.56;5037293;23;20054;-93
2022/01/24 06:58:15;;;;;;;22.95;12.10;;;;;;;1.80;69.31;102596.16;5010509;28;20109;-90
2022/01/24 07:00:54;;;;;;;23.63;11.65;;;;;;;1.56;69.83;102553.84;4994599;28;20057;-92
2022/01/24 07:03:25;;;;;;;22.02;12.35;;;;;;;1.68;68.70;102548.34;5013772;28;20026;-96
2022/01/24 07:05:58;;;;;;;27.33;13.18;;;;;;;0.84;69.14;102406.34;4996862;28;20425;-93
2022/01/24 07:08:33;;;;;;;25.63;12.95;;;;;;;0.78;69.49;102410.75;4996352;28;20033;-94
2022/01/24 07:11:04;;;;;;;24.90;12.60;;;;;;;1.85;69.27;102578.66;5006551;28;20030;-96
2022/01/24 07:13:30;;;;;;;24.25;12.18;;;;;;;1.43;69.07;102502.56;4974551;28;20033;-92
2022/01/24 07:16:09;;;;;;;22.15;11.93;;;;;;;0.86;69.22;102398.84;4975379;28;20031;-93
2022/01/24 07:19:02;;;;;;;23.77;12.40;;;;;;;1.27;68.63;102457.78;5013187;28;20030;-94
2022/01/24 07:22:04;;;;;;;24.85;13.00;;;;;;;1.84;69.15;102575.13;5017248;28;20053;-94
2022/01/24 07:24:55;;;;;;;27.75;13.30;;;;;;;1.88;69.41;102586.72;4974738;28;20038;-93
2022/01/24 07:27:48;;;;;;;24.75;13.07;;;;;;;1.86;69.22;102578.81;4974698;28;20395;-94
2022/01/24 07:30:14;;;;;;;27.35;13.68;;;;;;;1.70;68.87;102549.44;5004171;28;20041;-95
2022/01/24 07:33:01;;;;;;;22.35;12.27;;;;;;;1.80;69.07;102591.91;4977839;28;20113;-94
2022/01/24 07:36:16;;;;;;;24.52;13.18;;;;;;;1.79;69.19;102591.72;5009494;28;20034;-92
2022/01/24 07:39:04;;;;;;;26.80;13.27;;;;;;;1.83;69.11;102575.91;4994314;28;20489;-93
2022/01/24 07:41:44;;;;;;;25.92;13.93;;;;;;;1.63;69.19;102566.75;5025934;28;20081;-93
2022/01/24 07:44:16;;;;;;;25.80;13.55;;;;;;;1.59;68.95;102572.25;4993711;28;20027;-93
2022/01/24 07:46:57;;;;;;;26.10;13.38;;;;;;;1.59;68.88;102571.34;4991177;28;20022;-93
2022/01/24 07:52:49;;;;;;;24.55;13.20;;;;;;;1.60;68.99;102563.78;4975041;28;20054;-92
2022/01/24 07:55:16;;;;;;;26.92;13.27;;;;;;;1.48;69.01;102572.63;4993951;28;20116;-92
2022/01/24 07:57:47;;;;;;;28.40;13.52;;;;;;;1.60;68.81;102579.22;5003737;28;20030;-93
2022/01/24 08:00:25;;;;;;;25.05;13.10;;;;;;;1.50;69.15;102566.00;4993301;28;20506;-92
2022/01/24 08:06:13;;;;;;;25.38;12.73;;;;;;;1.50;69.13;102558.28;4993750;28;20057;-93
2022/01/24 08:12:06;;;;;;;26.55;13.43;;;;;;;1.68;69.04;102605.00;4993876;28;20045;-92
2022/01/24 08:14:46;;;;;;;27.02;14.07;;;;;;;1.69;69.43;102584.56;4992597;28;20042;-92
2022/01/24 08:17:20;;;;;;;24.40;13.65;;;;;;;1.69;68.80;102612.88;4992350;28;20026;-94
2022/01/24 08:19:54;;;;;;;25.65;13.32;;;;;;;1.53;68.56;102605.00;5000429;28;20030;-94
2022/01/24 08:22:19;;;;;;;25.02;13.23;;;;;;;1.53;69.21;102602.44;4977258;28;20030;-92
2022/01/24 08:25:03;;;;;;;28.00;13.63;;;;;;;1.72;69.08;102635.53;4992530;28;20088;-93
2022/01/24 08:27:33;;;;;;;27.40;13.48;;;;;;;1.47;69.30;102604.28;5008249;28;20088;-93
2022/01/24 08:30:03;;;;;;;30.35;14.80;;;;;;;1.34;68.42;102586.44;5025305;28;20030;-93
2022/01/24 08:35:51;;;;;;;27.42;13.10;;;;;;;1.30;69.09;102570.44;4982640;28;20068;-92
2022/01/24 08:38:29;;;;;;;26.95;13.98;;;;;;;1.63;68.82;102645.66;4992063;28;20023;-93
2022/01/24 08:41:03;;;;;;;27.63;14.02;;;;;;;1.48;68.62;102621.53;4979086;28;20053;-91
2022/01/24 08:46:41;;;;;;;27.30;14.05;;;;;;;1.72;68.68;102664.78;4982631;28;20034;-94
2022/01/24 08:49:49;;;;;;;27.02;13.95;;;;;;;1.73;69.00;102670.84;4999502;28;20485;-93
2022/01/24 08:52:32;;;;;;;25.50;13.23;;;;;;;1.80;68.09;102673.44;4996124;28;20038;-96
2022/01/24 08:55:02;;;;;;;24.60;12.80;;;;;;;1.72;68.16;102687.97;4999497;28;20055;-95
2022/01/24 08:57:49;;;;;;;27.38;13.05;;;;;;;1.75;68.47;102679.66;5012062;28;20033;-92
2022/01/24 09:00:35;;;;;;;26.92;13.93;;;;;;;1.67;68.90;102688.13;5028951;28;20490;-92
2022/01/24 09:03:03;;;;;;;24.48;12.65;;;;;;;1.51;68.16;102647.66;5013048;28;20030;-93
2022/01/24 09:05:43;;;;;;;25.83;12.48;;;;;;;1.42;68.99;102641.44;5011798;28;20030;-92
2022/01/24 09:08:10;;;;;;;23.25;12.52;;;;;;;1.48;69.33;102649.84;5012432;28;20041;-94
2022/01/24 09:10:52;;;;;;;27.17;12.88;;;;;;;1.46;69.48;102641.06;5013080;28;20030;-95
2022/01/24 09:13:36;;;;;;;28.23;13.98;;;;;;;1.63;69.54;102674.00;5017463;28;20038;-92
2022/01/24 09:16:02;;;;;;;23.27;12.15;;;;;;;1.60;69.02;102637.53;5024293;28;20113;-92
2022/01/24 09:18:32;;;;;;;27.95;12.57;;;;;;;2.07;67.83;102674.84;5017937;28;20022;-93
2022/01/24 09:21:14;;;;;;;25.80;12.73;;;;;;;2.10;68.11;102668.41;5024117;28;20127;-93
2022/01/24 09:23:53;;;;;;;23.00;12.07;;;;;;;1.93;68.01;102653.53;4995943;28;20034;-93
2022/01/24 09:26:43;;;;;;;27.50;12.88;;;;;;;2.26;67.79;102680.53;5011519;28;20026;-92
2022/01/24 09:29:16;;;;;;;23.13;12.30;;;;;;;1.81;67.96;102649.50;5028355;28;20038;-93
2022/01/24 09:31:46;;;;;;;24.55;12.27;;;;;;;1.80;68.32;102648.59;5016023;28;20065;-95
2022/01/24 09:34:15;;;;;;;23.85;12.23;;;;;;;2.03;67.45;102697.69;4980903;28;20662;-94
2022/01/24 09:37:19;;;;;;;26.20;12.52;;;;;;;2.14;67.91;102704.13;5015908;28;20066;-93
2022/01/24 09:39:47;;;;;;;26.45;12.13;;;;;;;1.86;68.47;102709.28;5016958;28;20497;-94
2022/01/24 09:42:13;;;;;;;21.95;12.18;;;;;;;1.83;67.79;102673.78;5019086;28;20034;-93
2022/01/24 09:44:39;;;;;;;23.48;12.50;;;;;;;1.81;68.09;102680.41;4993921;28;20053;-93
2022/01/24 09:47:04;;;;;;;21.73;12.43;;;;;;;1.88;67.55;102693.28;5007809;28;20030;-93
2022/01/24 09:49:34;;;;;;;23.75;12.65;;;;;;;2.08;68.01;102729.16;5023496;28;20034;-93
2022/01/24 09:52:18;;;;;;;23.15;12.60;;;;;;;2.03;67.78;102719.94;5000466;28;20042;-96
2022/01/24 09:54:43;;;;;;;22.25;12.23;;;;;;;1.73;67.93;102694.03;5019559;28;20050;-95
2022/01/24 09:57:24;;;;;;;21.88;12.15;;;;;;;1.93;67.83;102729.91;5012209;28;20062;-95
2022/01/24 09:59:52;;;;;;;21.95;11.82;;;;;;;1.54;68.41;102666.03;4999212;28;20033;-94
2022/01/24 10:02:18;;;;;;;23.95;12.25;;;;;;;1.74;67.88;102696.78;5010630;28;20038;-94
2022/01/24 10:04:43;;;;;;;25.20;11.73;;;;;;;1.67;68.29;102701.00;5012597;28;20037;-94
2022/01/24 10:07:22;;;;;;;23.27;12.35;;;;;;;1.71;68.25;102692.91;5012646;28;20023;-94
2022/01/24 10:10:26;;;;;;;20.60;10.88;;;;;;;2.02;68.36;102747.38;4977387;28;20051;-94
2022/01/24 10:22:17;;;;;;;23.45;11.30;;;;;;;1.26;68.77;102646.34;4998585;28;20097;-94
2022/01/24 10:28:37;;;;;;;21.83;11.00;;;;;;;2.10;67.69;102753.47;5012689;28;20039;-96
2022/01/24 10:31:51;;;;;;;23.52;12.05;;;;;;;2.28;67.63;102748.66;5017168;28;20049;-95
2022/01/24 10:35:09;;;;;;;22.70;12.00;;;;;;;2.04;68.08;102750.16;5024693;28;20042;-95
2022/01/24 10:45:11;;;;;;;23.13;11.75;;;;;;;1.95;68.41;102749.97;5004475;28;20491;-92
2022/01/24 10:47:55;;;;;;;22.27;12.13;;;;;;;1.95;68.21;102754.22;5012067;28;20128;-93
2022/01/24 10:54:20;;;;;;;23.20;12.40;;;;;;;1.86;68.87;102742.78;4993377;28;20069;-94
2022/01/24 10:56:58;;;;;;;26.35;12.90;;;;;;;1.95;68.06;102725.88;4990113;28;20497;-94
2022/01/24 10:59:36;;;;;;;21.17;11.18;;;;;;;1.46;68.17;102663.28;4995672;28;20044;-94
2022/01/24 11:02:08;;;;;;;23.52;12.43;;;;;;;1.70;68.26;102698.81;4993438;28;20038;-94
2022/01/24 11:04:34;;;;;;;22.75;12.18;;;;;;;1.55;68.07;102646.38;5011843;28;20030;-92
2022/01/24 11:07:22;;;;;;;21.88;12.07;;;;;;;1.91;68.75;102727.16;4995782;28;20437;-93
2022/01/24 11:13:21;;;;;;;20.38;11.52;;;;;;;1.82;68.56;102731.19;4995020;28;19920;-93
2022/01/24 11:15:56;;;;;;;23.42;12.30;;;;;;;1.83;68.39;102731.38;5036278;28;20097;-95
2022/01/24 11:18:32;;;;;;;24.80;12.55;;;;;;;1.73;68.82;102731.00;5005797;28;20034;-93
2022/01/24 11:21:15;;;;;;;26.08;12.95;;;;;;;1.64;69.10;102724.75;5009719;28;20065;-94
2022/01/24 11:23:43;;;;;;;25.00;12.40;;;;;;;1.75;68.61;102723.47;5000942;28;20120;-95
2022/01/24 11:26:11;;;;;;;22.73;12.18;;;;;;;1.82;68.67;102737.28;5020099;28;20065;-96
2022/01/24 11:31:17;;;;;;;23.08;12.85;;;;;;;1.16;68.71;102612.50;5741825;22;20530;-94
2022/01/24 11:33:55;;;;;;;23.13;12.27;;;;;;;0.94;68.44;102562.72;5094592;28;20032;-94
2022/01/24 11:36:36;;;;;;;22.58;11.90;;;;;;;1.91;68.76;102744.28;5098768;28;20020;-94
2022/01/24 11:42:45;;;;;;;21.75;12.13;;;;;;;1.82;68.94;102728.59;5102933;28;20089;-93
2022/01/24 11:45:16;;;;;;;22.63;12.05;;;;;;;1.73;68.93;102737.81;5082193;28;20055;-93
2022/01/24 11:47:46;;;;;;;22.80;11.95;;;;;;;1.71;68.88;102705.78;5078856;28;20038;-92
2022/01/24 11:50:51;;;;;;;23.55;11.80;;;;;;;1.74;69.60;102742.25;5055841;28;20024;-92
2022/01/24 11:53:30;;;;;;;20.98;11.27;;;;;;;1.63;69.31;102717.75;5072416;28;20511;-91
2022/01/24 11:56:19;;;;;;;22.63;12.13;;;;;;;1.75;68.83;102723.47;5055799;28;20028;-90
2022/01/24 11:59:20;;;;;;;19.52;10.93;;;;;;;1.83;68.25;102722.72;5071651;28;20021;-91
2022/01/24 12:02:10;;;;;;;21.40;11.93;;;;;;;1.71;69.35;102724.72;5071350;28;20021;-89
2022/01/24 12:05:14;;;;;;;20.80;11.15;;;;;;;1.68;69.27;102726.03;5054770;28;20020;-91
2022/01/24 12:08:04;;;;;;;19.80;11.70;;;;;;;1.67;69.25;102729.34;5071086;28;20081;-90
2022/01/24 12:14:24;;;;;;;23.85;11.95;;;;;;;1.68;68.98;102729.53;5072315;28;20047;-93
2022/01/24 12:22:49;;;;;;;18.85;11.07;;;;;;;0.70;69.21;102559.00;5658095;22;20319;-95
2022/01/24 12:25:19;;;;;;;23.35;11.57;;;;;;;1.16;68.49;102646.88;5070980;28;20032;-94
2022/01/24 12:38:47;;;;;;;22.60;11.80;;;;;;;1.40;68.49;102689.22;5070784;28;20053;-93
2022/01/24 12:41:37;;;;;;;20.33;11.50;;;;;;;1.63;68.83;102747.00;5081222;28;20070;-89
2022/01/24 12:46:18;;;;;;;21.25;11.00;;;;;;;1.56;68.90;102743.50;5084609;28;20392;-89
2022/01/24 12:46:59;;;;;;;21.05;10.80;;;;;;;1.76;68.63;102720.16;5076919;28;20082;-88
2022/01/24 12:49:28;;;;;;;20.98;10.30;;;;;;;1.37;68.40;102683.69;5054552;28;20028;-89
2022/01/24 12:51:54;;;;;;;19.73;11.45;;;;;;;1.46;67.83;102679.69;5080779;28;20132;-89
2022/01/24 12:54:29;;;;;;;22.65;11.50;;;;;;;1.86;68.53;102763.38;5070180;28;20095;-88
2022/01/24 12:57:02;;;;;;;20.80;11.15;;;;;;;1.81;67.99;102773.13;5081162;28;20085;-89
2022/01/24 12:59:31;;;;;;;19.92;10.88;;;;;;;1.80;68.39;102767.06;5070542;28;20025;-89
2022/01/24 13:02:00;;;;;;;19.95;10.68;;;;;;;1.77;68.13;102782.16;5055260;28;20033;-87
2022/01/24 13:04:37;;;;;;;18.02;10.30;;;;;;;1.79;68.18;102764.31;5082575;28;20093;-88
2022/01/24 13:07:04;;;;;;;19.50;10.68;;;;;;;1.66;68.49;102735.22;5070115;28;20468;-88
2022/01/24 13:09:31;;;;;;;19.23;11.20;;;;;;;1.78;68.52;102765.06;5053349;28;20032;-88
2022/01/24 13:12:32;;;;;;;20.27;11.35;;;;;;;1.82;67.97;102786.22;5071208;28;20024;-88
2022/01/24 13:23:32;;;;;;;;;;;;;;;1.74;68.03;102799.81;5072260;28;20037;-91
2022/01/24 13:26:46;;;;;;;20.67;11.25;;;;;;;1.76;68.38;102794.88;5071556;28;19916;-91
2022/01/24 13:32:47;;;;;;;20.02;10.93;;;;;;;1.31;68.82;102732.78;5082335;28;20039;-89
2022/01/24 13:35:23;;;;;;;23.30;11.25;;;;;;;1.72;68.47;102796.13;5094213;28;20449;-89
2022/01/24 13:37:50;;;;;;;17.63;10.43;;;;;;;1.79;68.41;102790.06;5058060;28;20044;-88
2022/01/24 13:40:30;;;;;;;17.65;10.68;;;;;;;1.43;68.24;102746.22;5058392;28;20407;-91
2022/01/24 13:42:56;;;;;;;19.95;10.90;;;;;;;1.45;68.32;102757.63;5066544;28;20029;-91
2022/01/24 13:45:26;;;;;;;16.63;10.52;;;;;;;1.36;68.47;102759.09;5056798;28;20039;-89
2022/01/24 13:48:20;;;;;;;19.15;10.50;;;;;;;1.34;68.03;102732.25;5073097;28;20115;-90
2022/01/24 13:51:03;;;;;;;20.90;10.50;;;;;;;1.80;68.15;102804.81;5056515;28;20492;-92
2022/01/24 13:53:41;;;;;;;18.85;10.38;;;;;;;1.75;68.54;102811.03;5057282;28;20500;-92
2022/01/24 13:56:49;;;;;;;20.60;10.80;;;;;;;1.75;68.49;102805.88;5056515;28;20043;-92
2022/01/24 13:59:25;;;;;;;18.08;10.00;;;;;;;1.62;68.70;102793.16;5070675;28;20068;-90
2022/01/24 14:01:59;;;;;;;20.17;10.88;;;;;;;1.74;68.33;102838.44;5089840;28;20435;-93
2022/01/24 14:04:52;;;;;;;18.73;10.40;;;;;;;1.73;68.17;102841.75;5074021;28;20059;-93
2022/01/24 14:07:34;;;;;;;18.92;10.50;;;;;;;1.95;67.73;102831.50;5075311;28;20032;-93
2022/01/24 14:10:07;;;;;;;21.25;10.80;;;;;;;1.50;68.47;102776.22;5074437;28;20086;-93
2022/01/24 14:12:50;;;;;;;21.25;10.52;;;;;;;1.61;68.38;102814.50;5082337;28;20033;-91
2022/01/24 14:16:02;;;;;;;18.40;10.55;;;;;;;1.70;68.58;102858.50;5078358;28;20093;-93
2022/01/24 14:18:33;;;;;;;19.77;10.45;;;;;;;1.72;68.42;102862.19;5054009;28;20029;-93
2022/01/24 14:21:15;;;;;;;18.27;10.65;;;;;;;1.29;68.74;102798.59;5072343;28;20090;-93
2022/01/24 14:24:00;;;;;;;20.65;10.90;;;;;;;1.58;67.79;102816.69;5098987;28;20037;-94
2022/01/24 14:26:56;;;;;;;20.20;11.15;;;;;;;1.73;68.35;102869.16;5043228;28;20033;-93
2022/01/24 14:29:27;;;;;;;18.95;10.55;;;;;;;1.49;68.27;102831.94;5073498;28;20035;-92
2022/01/24 14:32:09;;;;;;;23.83;11.50;;;;;;;1.53;68.60;102831.59;5056093;28;20031;-92
2022/01/24 14:34:39;;;;;;;21.33;11.63;;;;;;;1.38;68.19;102801.38;5067885;28;20043;-90
2022/01/24 14:37:06;;;;;;;24.95;12.10;;;;;;;1.50;68.41;102840.56;5074198;28;20048;-90
2022/01/24 14:39:58;;;;;;;21.80;11.40;;;;;;;1.72;68.96;102877.63;5074768;28;20070;-91
2022/01/24 14:42:44;;;;;;;22.45;12.18;;;;;;;1.48;68.24;102840.38;5084666;28;20036;-90
2022/01/24 14:45:17;;;;;;;23.95;12.43;;;;;;;1.45;68.34;102834.88;5072317;28;20040;-90
2022/01/24 14:47:44;;;;;;;23.30;12.40;;;;;;;1.71;68.29;102848.38;5079741;28;20028;-90
2022/01/24 14:50:16;;;;;;;21.55;11.70;;;;;;;1.42;67.42;102813.91;5072047;28;20063;-90
2022/01/24 14:52:42;;;;;;;24.60;11.77;;;;;;;1.43;68.19;102821.78;5067860;28;20075;-91
2022/01/24 14:55:08;;;;;;;21.03;11.10;;;;;;;1.57;67.43;102844.09;5086648;28;20419;-89
2022/01/24 14:57:37;;;;;;;21.52;11.23;;;;;;;1.65;68.00;102875.03;5072761;28;20286;-89
2022/01/24 15:00:04;;;;;;;25.63;12.40;;;;;;;1.62;68.05;102871.34;5080200;28;20517;-90
2022/01/24 15:02:29;;;;;;;22.23;10.82;;;;;;;1.68;68.34;102880.56;5077600;28;20064;-90
2022/01/24 15:05:07;;;;;;;22.38;12.38;;;;;;;1.56;68.05;102851.63;5073385;28;20055;-93
2022/01/24 15:07:40;;;;;;;20.50;11.32;;;;;;;1.65;67.69;102875.94;5086674;28;20064;-90
2022/01/24 15:10:10;;;;;;;24.10;11.63;;;;;;;1.71;68.79;102896.38;5071518;28;20021;-93
2022/01/24 15:12:52;;;;;;;22.30;11.77;;;;;;;1.67;68.19;102883.84;5065169;28;20028;-94
2022/01/24 15:15:23;;;;;;;21.17;11.68;;;;;;;1.52;68.53;102846.84;5060475;28;20119;-92
2022/01/24 15:27:09;;;;;;;25.60;12.68;;;;;;;1.82;68.32;102898.63;5081132;28;20032;-91
2022/01/24 15:29:45;;;;;;;24.98;12.50;;;;;;;1.77;68.10;102894.56;5085513;28;20043;-91
2022/01/24 15:35:38;;;;;;;26.77;12.85;;;;;;;1.51;68.07;102869.09;5053662;28;20079;-94